Time;durP1;ratioP1;P1;durP2;ratioP2;P2;SDS_P1;SDS_P2;PMS_P1;PMS_P2;Temp;Humidity;BMP_temperature;BMP_pressure;BME280_temperature;BME280_humidity;BME280_pressure;Samples;Min_cycle;Max_cycle;Signal;HPM_P1;HPM_P2
2023/07/15 00:02:52;;;;;;;18.00;17.13;;;23.70;1.00;;;;;;2613539;54;20419;-73
2023/07/15 00:11:37;;;;;;;17.73;16.93;;;24.00;1.00;;;;;;2614851;39;20781;-72
2023/07/15 00:17:25;;;;;;;17.63;16.33;;;23.50;1.00;;;;;;2615245;54;20442;-73
2023/07/15 00:29:57;;;;;;;17.00;16.20;;;23.80;1.00;;;;;;2611874;54;20423;-72
2023/07/15 00:35:45;;;;;;;16.50;15.80;;;23.50;1.00;;;;;;2612924;54;20253;-73
2023/07/15 00:41:35;;;;;;;17.20;16.40;;;23.60;1.00;;;;;;2611744;54;20351;-72
2023/07/15 00:53:36;;;;;;;17.57;16.67;;;23.20;1.00;;;;;;2612666;54;20391;-72
2023/07/15 00:59:24;;;;;;;17.60;16.70;;;23.60;1.00;;;;;;2613076;54;20130;-74
2023/07/15 01:05:12;;;;;;;17.30;16.60;;;23.60;1.00;;;;;;2612980;54;20737;-74
2023/07/15 01:11:00;;;;;;;17.63;16.43;;;23.60;1.00;;;;;;2614554;54;20135;-73
2023/07/15 01:16:48;;;;;;;17.23;16.53;;;23.90;1.00;;;;;;2614192;54;20154;-73
2023/07/15 01:22:36;;;;;;;17.20;16.40;;;23.60;1.00;;;;;;2613986;54;20387;-73
2023/07/15 01:28:24;;;;;;;18.23;17.43;;;23.60;1.00;;;;;;2614544;54;20544;-74
2023/07/15 01:34:12;;;;;;;17.10;16.20;;;23.70;1.00;;;;;;2614050;54;20238;-74
2023/07/15 01:39:59;;;;;;;17.40;16.50;;;24.00;1.00;;;;;;2614461;54;20621;-73
2023/07/15 01:45:47;;;;;;;17.33;16.47;;;23.70;1.00;;;;;;2614324;54;20171;-73
2023/07/15 01:51:35;;;;;;;17.73;16.97;;;23.50;1.00;;;;;;2613078;54;20134;-73
2023/07/15 01:57:25;;;;;;;16.70;16.00;;;23.40;1.00;;;;;;2613844;54;20475;-74
2023/07/15 02:07:25;;;;;;;16.60;15.83;;;23.50;1.00;;;;;;2612675;54;20371;-73
2023/07/15 02:13:12;;;;;;;17.77;16.40;;;23.50;1.00;;;;;;2614262;31;20882;-74
2023/07/15 02:19:00;;;;;;;16.57;15.87;;;23.50;1.00;;;;;;2613888;54;20129;-72
2023/07/15 02:22:03;;;;;;;16.83;16.03;;;23.40;1.00;;;;;;2614009;54;20424;-74
2023/07/15 02:24:29;;;;;;;15.70;15.00;;;23.40;1.00;;;;;;2614106;39;20660;-73
2023/07/15 02:30:19;;;;;;;16.70;15.80;;;23.40;1.00;;;;;;2613839;54;20375;-75
2023/07/15 02:36:07;;;;;;;15.83;15.03;;;23.40;1.00;;;;;;2613968;54;20950;-74
2023/07/15 02:41:55;;;;;;;16.60;15.80;;;23.50;1.00;;;;;;2613856;54;20130;-73
2023/07/15 02:47:43;;;;;;;16.10;15.40;;;23.30;1.00;;;;;;2613571;54;20379;-73
2023/07/15 02:53:31;;;;;;;17.30;16.30;;;23.20;1.00;;;;;;2614315;54;20347;-74
2023/07/15 02:59:19;;;;;;;17.17;16.13;;;23.20;1.00;;;;;;2613895;54;20130;-74
2023/07/15 03:05:07;;;;;;;16.73;15.80;;;23.20;1.00;;;;;;2612430;54;20174;-74
2023/07/15 03:10:55;;;;;;;16.00;15.10;;;23.20;1.00;;;;;;2611958;54;20920;-76
2023/07/15 03:16:43;;;;;;;16.80;16.10;;;23.30;1.00;;;;;;2613815;54;20169;-75
2023/07/15 03:22:31;;;;;;;16.73;15.93;;;23.30;1.00;;;;;;2613764;46;20275;-74
2023/07/15 03:28:19;;;;;;;16.90;16.20;;;23.20;1.00;;;;;;2613827;54;21576;-74
2023/07/15 03:34:07;;;;;;;16.50;15.80;;;23.30;1.00;;;;;;2612843;54;20122;-75
2023/07/15 03:39:54;;;;;;;16.27;15.57;;;23.10;1.00;;;;;;2613995;54;20131;-75
2023/07/15 03:45:42;;;;;;;18.27;16.67;;;23.10;1.00;;;;;;2613121;54;21034;-75
2023/07/15 03:51:30;;;;;;;15.97;15.17;;;23.30;1.00;;;;;;2614545;54;20122;-75
2023/07/15 03:57:17;;;;;;;15.80;15.10;;;23.00;1.00;;;;;;2614795;54;20134;-76
2023/07/15 04:07:24;;;;;;;16.00;15.30;;;23.00;1.00;;;;;;2614267;54;20387;-75
2023/07/15 04:13:11;;;;;;;15.60;14.90;;;23.10;1.00;;;;;;2613199;54;20415;-75
2023/07/15 04:18:59;;;;;;;15.83;14.93;;;23.00;1.00;;;;;;2614305;54;20172;-75
2023/07/15 04:24:46;;;;;;;15.63;14.93;;;23.10;1.00;;;;;;2614571;54;20243;-74
2023/07/15 04:30:35;;;;;;;16.43;15.63;;;23.10;1.00;;;;;;2614080;54;20130;-75
2023/07/15 04:36:23;;;;;;;15.30;14.43;;;23.10;1.00;;;;;;2614953;54;20397;-76
2023/07/15 04:42:10;;;;;;;16.27;15.27;;;23.10;1.00;;;;;;2613891;54;20153;-74
2023/07/15 04:47:59;;;;;;;16.03;15.27;;;23.30;1.00;;;;;;2614629;54;20656;-73
2023/07/15 04:53:46;;;;;;;15.33;14.63;;;23.50;1.00;;;;;;2613988;54;20963;-72
2023/07/15 04:59:34;;;;;;;15.40;14.70;;;23.60;1.00;;;;;;2612598;54;20243;-72
2023/07/15 05:02:55;;;;;;;15.50;14.80;;;23.50;1.00;;;;;;2612082;54;20978;-72
2023/07/15 05:05:20;;;;;;;15.93;15.33;;;23.50;1.00;;;;;;2613756;39;20825;-72
2023/07/15 05:11:08;;;;;;;15.93;15.20;;;23.60;1.00;;;;;;2613736;54;20663;-72
2023/07/15 05:16:55;;;;;;;15.87;15.17;;;24.00;1.00;;;;;;2614732;54;20142;-71
2023/07/15 05:22:43;;;;;;;16.40;15.60;;;24.20;1.00;;;;;;2614199;54;20144;-72
2023/07/15 05:28:32;;;;;;;16.30;15.40;;;24.40;1.00;;;;;;2614220;54;20150;-73
2023/07/15 05:34:20;;;;;;;16.93;15.50;;;24.70;1.00;;;;;;2612468;54;20382;-72
2023/07/15 05:40:12;;;;;;;15.83;15.03;;;24.60;1.00;;;;;;2614672;39;20712;-73
2023/07/15 05:45:59;;;;;;;15.80;14.93;;;24.80;1.00;;;;;;2613587;54;20364;-73
2023/07/15 05:51:47;;;;;;;15.63;14.83;;;25.10;1.00;;;;;;2612272;54;20175;-72
2023/07/15 05:57:35;;;;;;;15.47;14.67;;;25.80;1.00;;;;;;2614351;54;20148;-73
2023/07/15 06:07:22;;;;;;;14.73;14.13;;;25.90;1.00;;;;;;2613982;54;20463;-73
2023/07/15 06:13:10;;;;;;;14.90;14.20;;;26.20;1.00;;;;;;2612709;54;20408;-73
2023/07/15 06:18:58;;;;;;;14.00;13.37;;;26.50;1.00;;;;;;2613567;54;20383;-73
2023/07/15 06:24:46;;;;;;;14.13;13.63;;;26.70;1.00;;;;;;2613565;54;20138;-72
2023/07/15 06:30:34;;;;;;;15.40;14.10;;;26.90;1.00;;;;;;2613980;39;20553;-73
2023/07/15 06:36:22;;;;;;;14.70;14.00;;;27.40;1.00;;;;;;2613578;54;20228;-71
2023/07/15 06:42:10;;;;;;;14.10;13.60;;;27.70;1.00;;;;;;2614160;54;20126;-72
2023/07/15 06:47:57;;;;;;;15.20;14.33;;;28.00;1.00;;;;;;2613764;54;20660;-73
2023/07/15 06:53:45;;;;;;;15.00;14.20;;;28.00;1.00;;;;;;2612584;54;20146;-73
2023/07/15 06:59:33;;;;;;;14.83;13.83;;;28.90;1.00;;;;;;2607455;39;20762;-71
2023/07/15 07:02:55;;;;;;;13.40;12.90;;;28.80;1.00;;;;;;2610686;54;20503;-72
2023/07/15 07:05:20;;;;;;;14.77;13.97;;;29.10;1.00;;;;;;2611830;50;20232;-72
2023/07/15 07:11:08;;;;;;;13.73;13.10;;;29.10;1.00;;;;;;2613824;54;20142;-72
2023/07/15 07:16:56;;;;;;;12.90;12.30;;;29.40;1.00;;;;;;2611256;54;20135;-72
2023/07/15 07:22:44;;;;;;;14.40;13.80;;;29.40;1.00;;;;;;2614585;54;20130;-72
2023/07/15 07:28:44;;;;;;;14.37;13.67;;;29.00;1.00;;;;;;2612928;39;20731;-72
2023/07/15 07:34:33;;;;;;;14.17;13.43;;;29.10;1.00;;;;;;2614138;54;20398;-73
2023/07/15 07:40:21;;;;;;;14.00;13.30;;;27.80;1.00;;;;;;2614806;54;20504;-69
2023/07/15 07:46:10;;;;;;;14.20;13.50;;;27.40;1.00;;;;;;2613719;54;20180;-68
2023/07/15 07:51:58;;;;;;;14.90;14.30;;;27.00;1.00;;;;;;2613275;54;20426;-69
2023/07/15 07:57:46;;;;;;;14.50;13.80;;;26.80;1.00;;;;;;2613078;54;20135;-69
2023/07/15 08:07:24;;;;;;;15.00;14.27;;;27.40;1.00;;;;;;2612739;54;20453;-69
2023/07/15 08:10:27;;;;;;;15.97;14.77;;;27.10;1.00;;;;;;2613025;47;21011;-68
2023/07/15 08:12:53;;;;;;;14.00;13.10;;;27.50;1.00;;;;;;2614159;54;20430;-69
2023/07/15 08:18:40;;;;;;;14.23;13.53;;;26.90;1.00;;;;;;2613673;54;20138;-69
2023/07/15 08:24:28;;;;;;;14.70;14.03;;;26.80;1.00;;;;;;2615040;54;20130;-69
2023/07/15 08:30:16;;;;;;;14.70;13.90;;;26.80;1.00;;;;;;2613500;54;20156;-69
2023/07/15 08:36:04;;;;;;;15.90;14.60;;;27.20;1.00;;;;;;2613729;54;20134;-68
2023/07/15 08:41:53;;;;;;;14.57;13.97;;;27.10;1.00;;;;;;2614306;54;20132;-69
2023/07/15 08:47:44;;;;;;;14.50;13.90;;;26.70;1.00;;;;;;2613056;54;20399;-69
2023/07/15 08:53:32;;;;;;;13.90;12.93;;;26.90;1.00;;;;;;2613143;54;20449;-69
2023/07/15 08:59:20;;;;;;;15.67;14.47;;;26.80;1.00;;;;;;2613527;39;20533;-69
2023/07/15 09:08:30;;;;;;;14.70;14.00;;;25.90;1.00;;;;;;2614177;54;20947;-69
2023/07/15 09:14:18;;;;;;;16.20;15.30;;;25.50;1.00;;;;;;2614335;54;20121;-70
2023/07/15 09:20:14;;;;;;;15.33;14.33;;;25.20;1.00;;;;;;2614335;54;20250;-69
2023/07/15 09:26:04;;;;;;;11.93;11.30;;;24.10;1.00;;;;;;2614666;54;20434;-69
2023/07/15 09:31:52;;;;;;;7.87;7.37;;;21.80;99.90;;;;;;2611482;54;20399;-68
2023/07/15 09:37:40;;;;;;;8.73;6.10;;;21.00;99.90;;;;;;2614992;39;20501;-67
2023/07/15 09:54:11;;;;;;;5.30;4.90;;;20.20;99.90;;;;;;2611892;54;20765;-67
2023/07/15 09:59:59;;;;;;;5.80;4.73;;;20.10;99.90;;;;;;2613188;54;20447;-67
2023/07/15 10:09:10;;;;;;;5.33;4.43;;;19.80;99.90;;;;;;2613938;54;20414;-67
2023/07/15 10:14:58;;;;;;;5.70;5.20;;;19.90;99.90;;;;;;2614233;39;20756;-67
2023/07/15 10:27:03;;;;;;;5.40;4.90;;;20.30;99.90;;;;;;2613926;54;20471;-66
2023/07/15 10:33:09;;;;;;;5.37;4.83;;;20.50;99.90;;;;;;2613496;54;20417;-65
2023/07/15 10:45:41;;;;;;;9.20;5.60;;;20.90;99.90;;;;;;2613894;39;20820;-66
2023/07/15 10:51:31;;;;;;;6.63;4.80;;;20.90;99.90;;;;;;2613156;46;20431;-66
2023/07/15 10:57:19;;;;;;;5.60;5.20;;;21.60;99.90;;;;;;2613298;54;20399;-66
2023/07/15 11:03:09;;;;;;;7.20;6.70;;;23.00;99.90;;;;;;2613008;54;20171;-66
2023/07/15 11:08:57;;;;;;;7.50;6.80;;;23.40;99.90;;;;;;2613679;54;20399;-67
2023/07/15 11:14:45;;;;;;;6.67;5.90;;;22.60;99.90;;;;;;2613282;54;20131;-67
2023/07/15 11:20:33;;;;;;;6.50;6.07;;;22.70;99.90;;;;;;2613584;39;20524;-66
2023/07/15 11:26:25;;;;;;;6.83;6.10;;;22.50;99.90;;;;;;2611866;54;20407;-66
2023/07/15 11:32:15;;;;;;;5.73;5.23;;;22.90;99.90;;;;;;2614020;39;20763;-67
2023/07/15 11:44:21;;;;;;;4.60;4.27;;;23.90;99.90;;;;;;2613079;54;20391;-69
2023/07/15 11:50:15;;;;;;;5.00;4.60;;;24.00;99.90;;;;;;2613397;54;20430;-67
2023/07/15 11:56:05;;;;;;;5.87;5.30;;;25.30;99.90;;;;;;2613197;54;20412;-69
2023/07/15 12:01:55;;;;;;;6.50;6.10;;;25.50;99.90;;;;;;2611542;54;20395;-68
2023/07/15 12:04:42;;;;;;;5.93;5.63;;;26.30;99.90;;;;;;2613918;54;20449;-67
2023/07/15 12:07:07;;;;;;;6.50;5.77;;;26.30;99.90;;;;;;2613812;49;21029;-68
2023/07/15 12:12:55;;;;;;;6.50;6.10;;;25.20;99.90;;;;;;2613633;54;20660;-67
2023/07/15 12:18:43;;;;;;;6.67;6.27;;;25.20;99.90;;;;;;2614950;39;20565;-67
2023/07/15 12:24:31;;;;;;;7.23;6.73;;;25.40;99.90;;;;;;2614202;54;20640;-69
2023/07/15 12:30:18;;;;;;;7.07;6.57;;;25.10;99.90;;;;;;2613878;54;20147;-68
2023/07/15 12:36:09;;;;;;;6.50;6.10;;;24.40;99.90;;;;;;2613814;54;20289;-67
2023/07/15 12:41:56;;;;;;;6.80;6.40;;;24.30;99.90;;;;;;2612637;54;20415;-68
2023/07/15 12:47:44;;;;;;;6.47;6.17;;;24.30;99.90;;;;;;2613942;54;20151;-67
2023/07/15 12:53:32;;;;;;;7.40;6.90;;;24.30;99.90;;;;;;2613992;54;20140;-68
2023/07/15 12:59:20;;;;;;;7.37;6.77;;;24.40;99.90;;;;;;2613947;54;20131;-68
2023/07/15 13:09:07;;;;;;;7.80;7.33;;;24.00;99.90;;;;;;2608315;54;20441;-68
2023/07/15 13:14:54;;;;;;;7.60;7.10;;;24.10;99.90;;;;;;2614017;54;20404;-68
2023/07/15 13:20:43;;;;;;;8.97;8.27;;;24.80;99.90;;;;;;2613876;39;20660;-68
2023/07/15 13:26:30;;;;;;;8.60;7.93;;;26.10;99.90;;;;;;2613326;54;20527;-68
2023/07/15 13:32:19;;;;;;;9.43;8.60;;;27.40;99.90;;;;;;2613289;54;20133;-69
2023/07/15 13:38:06;;;;;;;8.97;8.57;;;26.70;99.90;;;;;;2611505;54;20403;-68
2023/07/15 13:43:54;;;;;;;9.67;9.10;;;26.50;99.90;;;;;;2614699;54;20153;-68
2023/07/15 13:49:42;;;;;;;9.23;8.67;;;26.70;99.90;;;;;;2614639;54;20134;-68
2023/07/15 13:55:30;;;;;;;9.20;8.80;;;27.10;99.90;;;;;;2614861;54;20166;-67
2023/07/15 14:01:17;;;;;;;11.23;10.57;;;26.60;99.90;;;;;;2614746;54;20196;-68
2023/07/15 14:04:39;;;;;;;9.07;8.30;;;26.90;99.90;;;;;;2614132;54;20946;-68
2023/07/15 14:07:04;;;;;;;11.20;10.33;;;26.50;99.90;;;;;;2613657;54;20162;-66
2023/07/15 14:10:08;;;;;;;9.43;8.90;;;25.90;99.90;;;;;;2613286;54;20934;-68
2023/07/15 14:12:33;;;;;;;10.00;9.40;;;25.70;99.90;;;;;;2613868;54;20162;-68
2023/07/15 14:18:21;;;;;;;9.50;8.80;;;26.00;99.90;;;;;;2613750;39;20616;-68
2023/07/15 14:24:09;;;;;;;9.37;8.77;;;26.10;99.90;;;;;;2612344;54;20664;-68
2023/07/15 14:29:56;;;;;;;9.80;9.20;;;25.60;99.90;;;;;;2612406;54;20133;-68
2023/07/15 14:35:44;;;;;;;10.17;9.67;;;26.20;99.90;;;;;;2613934;54;20267;-68
2023/07/15 14:41:32;;;;;;;10.20;9.70;;;27.80;70.90;;;;;;2612961;54;20228;-68
2023/07/15 14:47:20;;;;;;;10.93;10.33;;;26.80;72.80;;;;;;2613941;54;20152;-69
2023/07/15 14:53:08;;;;;;;9.70;9.20;;;26.90;72.80;;;;;;2613443;54;20150;-68
2023/07/15 14:58:56;;;;;;;9.57;9.13;;;26.40;88.00;;;;;;2613414;54;20165;-68
2023/07/15 15:04:44;;;;;;;10.20;9.70;;;26.00;91.70;;;;;;2614084;54;20438;-68
2023/07/15 15:10:32;;;;;;;9.83;9.33;;;27.00;61.60;;;;;;2614486;54;20161;-69
2023/07/15 15:16:19;;;;;;;10.17;9.60;;;26.90;59.60;;;;;;2613653;54;20131;-69
2023/07/15 15:22:07;;;;;;;10.20;9.70;;;27.40;40.90;;;;;;2613944;54;20672;-67
2023/07/15 15:27:55;;;;;;;10.63;10.00;;;27.20;37.60;;;;;;2614216;54;20147;-67
2023/07/15 15:33:43;;;;;;;11.47;10.77;;;27.30;31.50;;;;;;2613289;54;20133;-69
2023/07/15 15:39:30;;;;;;;10.60;9.83;;;27.40;29.10;;;;;;2614446;54;20122;-68
2023/07/15 15:45:18;;;;;;;10.87;10.37;;;26.90;25.10;;;;;;2614521;54;20649;-69
2023/07/15 15:51:06;;;;;;;10.33;9.83;;;27.60;23.60;;;;;;2614747;54;20140;-69
2023/07/15 15:56:54;;;;;;;10.70;10.10;;;27.00;23.40;;;;;;2614726;54;20199;-68
2023/07/15 16:02:42;;;;;;;9.90;9.50;;;27.70;16.90;;;;;;2614537;54;20426;-68
2023/07/15 16:11:55;;;;;;;9.00;8.60;;;27.40;11.20;;;;;;2613326;54;20411;-68
2023/07/15 16:17:44;;;;;;;9.60;9.17;;;28.80;1.00;;;;;;2613418;54;20367;-71
2023/07/15 16:23:31;;;;;;;10.83;10.00;;;29.40;1.00;;;;;;2613193;54;20395;-69
2023/07/15 16:29:19;;;;;;;10.73;10.23;;;28.40;1.00;;;;;;2613646;54;20166;-68
2023/07/15 16:35:08;;;;;;;10.60;10.10;;;28.50;1.00;;;;;;2614711;54;20273;-68
2023/07/15 16:40:56;;;;;;;10.90;10.40;;;28.20;1.00;;;;;;2614881;54;20399;-68
2023/07/15 16:46:44;;;;;;;11.37;10.87;;;27.70;1.00;;;;;;2614596;54;20501;-68
2023/07/15 16:52:31;;;;;;;10.93;10.53;;;27.40;1.00;;;;;;2614256;54;20262;-68
2023/07/15 16:58:19;;;;;;;11.90;11.27;;;27.30;1.00;;;;;;2614445;54;20775;-70
2023/07/15 17:04:07;;;;;;;11.67;11.17;;;27.10;1.00;;;;;;2614163;54;20143;-69
2023/07/15 17:07:27;;;;;;;12.90;12.10;;;27.00;1.00;;;;;;2614398;54;20969;-67
2023/07/15 17:09:53;;;;;;;11.80;11.00;;;26.90;2.90;;;;;;2613992;47;20789;-71
2023/07/15 17:15:41;;;;;;;11.63;11.13;;;26.80;6.20;;;;;;2614249;54;20433;-68
2023/07/15 17:21:28;;;;;;;11.93;11.43;;;26.90;3.60;;;;;;2613033;54;20147;-68
2023/07/15 17:27:16;;;;;;;11.70;11.20;;;26.60;9.40;;;;;;2609871;54;20754;-68
2023/07/15 17:33:04;;;;;;;12.90;12.00;;;26.40;14.70;;;;;;2613682;39;20530;-69
2023/07/15 17:38:52;;;;;;;11.50;11.00;;;26.20;16.50;;;;;;2613854;54;20254;-69
2023/07/15 17:44:40;;;;;;;12.03;11.33;;;25.90;19.00;;;;;;2613687;54;20134;-68
2023/07/15 17:50:27;;;;;;;10.70;10.10;;;25.90;22.70;;;;;;2614615;54;20131;-68
2023/07/15 17:56:15;;;;;;;10.47;10.00;;;25.70;30.00;;;;;;2613817;54;20158;-70
2023/07/15 18:02:04;;;;;;;11.20;10.27;;;25.70;30.80;;;;;;2613586;39;20647;-69
2023/07/15 18:11:54;;;;;;;11.30;10.50;;;25.50;37.20;;;;;;2613863;54;20961;-69
2023/07/15 18:17:42;;;;;;;13.07;12.37;;;25.40;35.20;;;;;;2613697;54;20394;-68
2023/07/15 18:23:36;;;;;;;12.70;11.90;;;25.30;41.50;;;;;;2613820;54;20364;-69
2023/07/15 18:29:24;;;;;;;11.47;10.87;;;25.20;40.90;;;;;;2613467;54;20434;-68
2023/07/15 18:35:11;;;;;;;11.47;10.97;;;25.10;34.90;;;;;;2613366;54;20689;-68
2023/07/15 18:40:59;;;;;;;11.53;10.87;;;25.00;30.60;;;;;;2612668;54;20138;-67
2023/07/15 18:46:47;;;;;;;11.50;11.00;;;24.80;32.30;;;;;;2613627;54;20130;-68
2023/07/15 18:52:35;;;;;;;10.50;9.90;;;24.60;46.70;;;;;;2612044;54;20176;-69
2023/07/15 18:58:22;;;;;;;9.43;9.03;;;24.20;72.20;;;;;;2613738;54;20678;-69
2023/07/15 19:04:11;;;;;;;9.60;9.10;;;23.90;95.70;;;;;;2613586;54;20140;-68
2023/07/15 19:07:29;;;;;;;8.70;8.30;;;23.80;99.90;;;;;;2612737;47;20477;-66
2023/07/15 19:09:57;;;;;;;9.57;9.00;;;23.80;99.90;;;;;;2613970;31;20910;-68
2023/07/15 19:15:45;;;;;;;0.70;0.30;;;18.90;99.90;;;;;;2614354;54;20400;-73
2023/07/15 19:21:32;;;;;;;0.80;0.40;;;20.80;99.90;;;;;;2611777;54;20148;-70
2023/07/15 19:27:20;;;;;;;0.77;0.50;;;19.70;99.90;;;;;;2613793;54;20690;-69
2023/07/15 19:33:08;;;;;;;0.80;0.50;;;20.00;99.90;;;;;;2613061;54;20160;-69
2023/07/15 19:38:55;;;;;;;0.80;0.50;;;20.00;99.90;;;;;;2613326;54;20165;-70
2023/07/15 19:44:43;;;;;;;0.80;0.50;;;20.00;99.90;;;;;;2614815;54;20148;-68
2023/07/15 19:50:31;;;;;;;0.80;0.60;;;19.90;99.90;;;;;;2614684;54;20664;-69
2023/07/15 19:56:19;;;;;;;0.80;0.60;;;20.00;99.90;;;;;;2613265;54;20215;-70
2023/07/15 20:02:07;;;;;;;0.80;0.70;;;19.90;99.90;;;;;;2612643;54;20138;-69
2023/07/15 20:11:54;;;;;;;1.00;0.90;;;19.20;99.90;;;;;;2613144;54;20363;-69
2023/07/15 20:17:42;;;;;;;1.20;1.10;;;18.90;99.90;;;;;;2613917;54;20385;-69
2023/07/15 20:23:30;;;;;;;1.30;1.20;;;18.90;99.90;;;;;;2613827;54;20201;-69
2023/07/15 20:29:18;;;;;;;1.50;1.40;;;18.40;99.90;;;;;;2614097;39;20538;-70
2023/07/15 20:35:06;;;;;;;2.00;1.90;;;18.20;99.90;;;;;;2614141;54;20168;-68
2023/07/15 20:40:54;;;;;;;1.60;1.50;;;18.20;99.90;;;;;;2613412;54;20533;-69
2023/07/15 20:46:43;;;;;;;1.47;1.37;;;18.00;99.90;;;;;;2612163;54;20136;-69
2023/07/15 20:52:31;;;;;;;1.30;1.20;;;18.10;99.90;;;;;;2613921;54;20395;-69
2023/07/15 20:58:19;;;;;;;1.10;1.00;;;18.10;99.90;;;;;;2612632;54;21172;-70
2023/07/15 21:04:07;;;;;;;1.00;0.90;;;18.20;99.90;;;;;;2614183;54;20669;-69
2023/07/15 21:07:27;;;;;;;1.00;0.90;;;18.10;99.90;;;;;;2613653;54;20419;-70
2023/07/15 21:09:53;;;;;;;1.40;1.30;;;18.00;99.90;;;;;;2613270;54;20292;-69
2023/07/15 21:15:40;;;;;;;2.10;2.00;;;18.00;99.90;;;;;;2614304;31;20599;-68
2023/07/15 21:21:28;;;;;;;1.10;1.00;;;17.80;99.90;;;;;;2614222;54;20151;-68
2023/07/15 21:27:16;;;;;;;1.20;1.10;;;17.90;99.90;;;;;;2613832;54;20145;-70
2023/07/15 21:33:04;;;;;;;1.00;0.90;;;17.80;99.90;;;;;;2613608;54;20283;-70
2023/07/15 21:38:51;;;;;;;5.13;4.20;;;17.80;99.90;;;;;;2614187;54;20135;-69
2023/07/15 21:44:41;;;;;;;4.23;3.83;;;17.80;99.90;;;;;;2613962;54;20134;-69
2023/07/15 21:50:29;;;;;;;3.83;3.43;;;17.70;99.90;;;;;;2612425;54;20363;-69
2023/07/15 21:56:16;;;;;;;5.63;4.10;;;17.50;99.90;;;;;;2614017;54;20134;-68
2023/07/15 22:02:04;;;;;;;3.70;3.40;;;17.60;99.90;;;;;;2612580;54;20134;-69
2023/07/15 22:11:55;;;;;;;7.67;4.07;;;17.50;99.90;;;;;;2614090;54;20391;-70
2023/07/15 22:17:43;;;;;;;4.30;3.67;;;17.40;99.90;;;;;;2614645;54;20491;-68
2023/07/15 22:23:30;;;;;;;4.50;4.07;;;17.50;99.90;;;;;;2613469;39;20663;-70
2023/07/15 22:29:18;;;;;;;7.33;4.60;;;17.40;99.90;;;;;;2614709;54;20146;-70
2023/07/15 22:35:06;;;;;;;10.07;3.70;;;17.50;99.90;;;;;;2614390;54;20154;-69
2023/07/15 22:40:53;;;;;;;8.07;4.00;;;17.60;99.90;;;;;;2612906;54;20122;-69
2023/07/15 22:46:41;;;;;;;6.77;4.17;;;17.60;99.90;;;;;;2613915;54;20745;-69
2023/07/15 22:52:29;;;;;;;6.20;4.10;;;17.60;99.90;;;;;;2613650;54;20158;-69
2023/07/15 22:55:32;;;;;;;4.13;3.40;;;17.70;99.90;;;;;;2613473;39;20816;-69
2023/07/15 22:57:57;;;;;;;3.50;3.20;;;17.60;99.90;;;;;;2613790;39;20565;-69
2023/07/15 23:03:45;;;;;;;8.30;3.53;;;17.80;99.90;;;;;;2612633;54;20129;-68
2023/07/15 23:09:33;;;;;;;4.47;3.17;;;17.80;99.90;;;;;;2613768;54;20173;-69
2023/07/15 23:15:21;;;;;;;5.03;3.50;;;17.90;99.90;;;;;;2614260;54;20144;-69
2023/07/15 23:21:09;;;;;;;9.70;3.80;;;17.90;99.90;;;;;;2612977;54;20129;-70
2023/07/15 23:26:56;;;;;;;7.23;3.17;;;17.80;99.90;;;;;;2614091;54;20134;-71
2023/07/15 23:32:44;;;;;;;4.73;3.30;;;17.90;99.90;;;;;;2613451;54;20656;-69
2023/07/15 23:38:32;;;;;;;6.20;3.23;;;17.90;99.90;;;;;;2612672;54;20139;-68
2023/07/15 23:44:19;;;;;;;4.93;3.30;;;17.80;99.90;;;;;;2613688;54;20634;-69
2023/07/15 23:50:07;;;;;;;5.73;3.50;;;17.90;99.90;;;;;;2613814;31;20626;-68
2023/07/15 23:55:55;;;;;;;6.00;3.37;;;17.60;99.90;;;;;;2613238;54;20359;-68
